createdAt,value
2023-05-19T00:01:34.593Z,11.68
2023-05-19T00:04:21.760Z,11.61
2023-05-19T00:07:10.978Z,11.48
2023-05-19T00:09:58.096Z,11.52
2023-05-19T00:12:45.309Z,11.49
2023-05-19T00:15:32.538Z,11.46
2023-05-19T00:18:19.635Z,11.41
2023-05-19T00:21:06.466Z,11.39
2023-05-19T00:23:54.014Z,11.35
2023-05-19T00:26:40.824Z,11.35
2023-05-19T00:29:29.225Z,11.26
2023-05-19T00:32:16.365Z,11.32
2023-05-19T00:35:03.511Z,11.29
2023-05-19T00:37:50.345Z,11.29
2023-05-19T00:40:37.247Z,11.25
2023-05-19T00:43:24.077Z,11.24
2023-05-19T00:46:11.172Z,11.23
2023-05-19T00:48:58.113Z,11.21
2023-05-19T00:51:45.955Z,11.21
2023-05-19T00:54:34.609Z,11.14
2023-05-19T00:57:22.110Z,11.13
2023-05-19T01:00:09.697Z,11.15
2023-05-19T01:02:56.863Z,11.13
2023-05-19T01:05:43.764Z,11.09
2023-05-19T01:08:35.489Z,11.06
2023-05-19T01:11:22.321Z,11.01
2023-05-19T01:14:09.240Z,11.01
2023-05-19T01:17:14.719Z,10.99
2023-05-19T01:20:09.912Z,10.98
2023-05-19T01:23:17.133Z,10.95
2023-05-19T01:26:26.249Z,10.91
2023-05-19T01:29:41.917Z,10.86
2023-05-19T01:32:31.088Z,10.87
2023-05-19T01:35:18.531Z,10.96
2023-05-19T01:38:09.133Z,10.96
2023-05-19T01:40:57.249Z,10.96
2023-05-19T01:43:44.636Z,10.96
2023-05-19T01:46:31.628Z,10.93
2023-05-19T01:49:18.542Z,10.91
2023-05-19T01:52:05.707Z,10.88
2023-05-19T01:54:52.587Z,10.85
2023-05-19T01:57:45.271Z,10.82
2023-05-19T02:00:38.279Z,10.81
2023-05-19T02:03:55.939Z,10.79
2023-05-19T02:06:58.053Z,10.77
2023-05-19T02:09:59.318Z,10.77
2023-05-19T02:12:48.013Z,10.76
2023-05-19T02:15:41.405Z,10.74
2023-05-19T02:18:28.789Z,10.75
2023-05-19T02:21:15.627Z,10.74
2023-05-19T02:24:02.670Z,10.72
2023-05-19T02:26:50.821Z,10.73
2023-05-19T02:29:38.707Z,10.72
2023-05-19T02:32:25.839Z,10.70
2023-05-19T02:35:13.620Z,10.69
2023-05-19T02:38:00.498Z,10.66
2023-05-19T02:40:47.531Z,10.61
2023-05-19T02:43:34.517Z,10.61
2023-05-19T02:46:21.518Z,10.58
2023-05-19T02:49:08.422Z,10.56
2023-05-19T02:51:55.252Z,10.57
2023-05-19T02:54:42.165Z,10.56
2023-05-19T02:57:29.671Z,10.55
2023-05-19T03:00:16.584Z,10.52
2023-05-19T03:03:04.811Z,10.52
2023-05-19T03:05:51.740Z,10.52
2023-05-19T03:08:40.128Z,10.55
2023-05-19T03:11:29.148Z,10.53
2023-05-19T03:14:15.997Z,10.53
2023-05-19T03:17:03.178Z,10.51
2023-05-19T03:19:50.025Z,10.51
2023-05-19T03:22:36.909Z,10.50
2023-05-19T03:25:23.896Z,10.51
2023-05-19T03:28:10.799Z,10.51
2023-05-19T03:30:57.766Z,10.50
2023-05-19T03:33:48.727Z,10.51
2023-05-19T03:36:35.902Z,10.51
2023-05-19T03:39:22.798Z,10.50
2023-05-19T03:42:09.648Z,10.51
2023-05-19T03:44:56.571Z,10.52
2023-05-19T03:47:43.580Z,10.51
2023-05-19T03:50:45.143Z,10.48
2023-05-19T03:53:36.830Z,10.42
2023-05-19T03:56:23.757Z,10.41
2023-05-19T03:59:10.597Z,10.38
2023-05-19T04:01:57.642Z,10.36
2023-05-19T04:04:46.389Z,10.33
2023-05-19T04:07:33.330Z,10.33
2023-05-19T04:10:20.297Z,10.34
2023-05-19T04:13:07.248Z,10.35
2023-05-19T04:15:54.406Z,10.36
2023-05-19T04:18:41.285Z,10.38
2023-05-19T04:21:28.120Z,10.39
2023-05-19T04:24:15.146Z,10.41
2023-05-19T04:27:02.257Z,10.42
2023-05-19T04:29:49.446Z,10.43
2023-05-19T04:32:36.476Z,10.44
2023-05-19T04:35:24.000Z,10.46
2023-05-19T04:38:11.328Z,10.48
2023-05-19T04:40:58.811Z,10.48
2023-05-19T04:43:45.737Z,10.51
2023-05-19T04:46:33.343Z,10.49
2023-05-19T04:49:20.393Z,10.49
2023-05-19T04:52:08.995Z,10.53
2023-05-19T04:54:55.863Z,10.55
2023-05-19T04:57:43.786Z,10.55
2023-05-19T05:00:31.440Z,10.56
2023-05-19T05:03:22.288Z,10.57
2023-05-19T05:06:09.244Z,10.57
2023-05-19T05:08:56.134Z,10.59
2023-05-19T05:11:43.456Z,10.62
2023-05-19T05:14:30.799Z,10.66
2023-05-19T05:17:17.922Z,10.69
2023-05-19T05:20:05.509Z,10.74
2023-05-19T05:22:52.686Z,10.75
2023-05-19T05:25:41.906Z,10.77
2023-05-19T05:28:29.835Z,10.82
2023-05-19T05:31:17.591Z,10.85
2023-05-19T05:34:05.060Z,10.91
2023-05-19T05:36:52.739Z,10.98
2023-05-19T05:39:40.152Z,11.04
2023-05-19T05:42:29.469Z,11.11
2023-05-19T05:45:17.119Z,11.18
2023-05-19T05:48:04.537Z,11.20
2023-05-19T05:50:52.680Z,11.29
2023-05-19T05:53:49.808Z,11.31
2023-05-19T05:56:38.077Z,11.34
2023-05-19T05:59:27.977Z,11.38
2023-05-19T06:02:15.047Z,11.43
2023-05-19T06:05:02.161Z,11.48
2023-05-19T06:07:49.197Z,11.56
2023-05-19T06:10:41.358Z,11.63
2023-05-19T06:13:29.634Z,11.66
2023-05-19T06:16:16.640Z,11.71
2023-05-19T06:19:06.274Z,11.78
2023-05-19T06:21:53.346Z,11.81
2023-05-19T06:24:40.966Z,11.85
2023-05-19T06:27:29.752Z,11.89
2023-05-19T06:30:16.666Z,11.93
2023-05-19T06:33:21.581Z,11.95
2023-05-19T06:36:09.052Z,11.98
2023-05-19T06:38:58.842Z,12.00
2023-05-19T06:41:47.066Z,11.97
2023-05-19T06:44:48.070Z,11.94
2023-05-19T06:47:36.047Z,11.98
2023-05-19T06:50:23.188Z,11.98
2023-05-19T06:53:10.120Z,12.00
2023-05-19T06:55:59.756Z,12.01
2023-05-19T06:58:49.065Z,12.01
2023-05-19T07:01:36.184Z,12.01
2023-05-19T07:04:24.114Z,12.01
2023-05-19T07:07:10.972Z,11.98
2023-05-19T07:09:57.874Z,11.95
2023-05-19T07:12:46.226Z,11.94
2023-05-19T07:15:34.165Z,11.91
2023-05-19T07:18:22.355Z,11.87
2023-05-19T07:21:09.224Z,11.85
2023-05-19T07:23:57.550Z,11.80
2023-05-19T07:26:44.388Z,11.74
2023-05-19T07:29:31.198Z,11.68
2023-05-19T07:32:18.197Z,11.64
2023-05-19T07:35:05.989Z,11.64
2023-05-19T07:37:52.928Z,11.63
2023-05-19T07:40:39.805Z,11.65
2023-05-19T07:43:26.917Z,11.70
2023-05-19T07:46:13.853Z,11.73
2023-05-19T07:49:00.742Z,11.78
2023-05-19T07:51:47.655Z,11.83
2023-05-19T07:54:34.507Z,11.87
2023-05-19T07:57:21.424Z,11.88
2023-05-19T08:00:08.819Z,11.88
2023-05-19T08:03:00.257Z,11.87
2023-05-19T08:05:47.311Z,11.88
2023-05-19T08:08:34.753Z,11.89
2023-05-19T08:11:21.956Z,11.89
2023-05-19T08:14:08.791Z,11.93
2023-05-19T08:16:55.594Z,11.98
2023-05-19T08:19:42.437Z,12.00
2023-05-19T08:22:29.319Z,12.00
2023-05-19T08:25:16.204Z,12.05
2023-05-19T08:28:03.137Z,12.11
2023-05-19T08:30:51.165Z,12.14
2023-05-19T08:33:37.965Z,12.21
2023-05-19T08:36:24.816Z,12.26
2023-05-19T08:39:11.899Z,12.34
2023-05-19T08:41:58.760Z,12.41
2023-05-19T08:44:45.651Z,12.49
2023-05-19T08:47:33.180Z,12.61
2023-05-19T08:50:28.155Z,12.64
2023-05-19T08:53:32.469Z,12.70
2023-05-19T08:56:24.681Z,12.82
2023-05-19T08:59:13.148Z,12.87
2023-05-19T09:02:00.097Z,12.88
2023-05-19T09:04:47.330Z,12.82
2023-05-19T09:07:36.377Z,12.75
2023-05-19T09:10:23.266Z,12.76
2023-05-19T09:13:10.161Z,12.71
2023-05-19T09:15:57.837Z,12.64
2023-05-19T09:18:55.404Z,12.70
2023-05-19T09:21:43.587Z,12.76
2023-05-19T09:24:31.901Z,12.84
2023-05-19T09:27:22.334Z,12.88
2023-05-19T09:30:09.446Z,12.93
2023-05-19T09:32:56.535Z,12.96
2023-05-19T09:35:47.136Z,12.98
2023-05-19T09:38:35.488Z,12.96
2023-05-19T09:41:22.530Z,13.15
2023-05-19T09:44:28.042Z,13.31
2023-05-19T09:47:14.819Z,13.45
2023-05-19T09:50:01.700Z,13.60
2023-05-19T09:52:48.703Z,13.78
2023-05-19T09:55:35.609Z,13.88
2023-05-19T09:58:22.482Z,13.92
2023-05-19T10:01:09.641Z,14.02
2023-05-19T10:03:56.983Z,13.99
2023-05-19T10:06:44.299Z,14.02
2023-05-19T10:09:31.915Z,14.14
2023-05-19T10:12:19.303Z,14.26
2023-05-19T10:15:11.382Z,14.39
2023-05-19T10:17:59.413Z,14.65
2023-05-19T10:20:49.089Z,14.79
2023-05-19T10:23:36.029Z,14.93
2023-05-19T10:26:24.682Z,15.02
2023-05-19T10:29:14.598Z,15.06
2023-05-19T10:32:07.717Z,15.08
2023-05-19T10:34:54.536Z,15.04
2023-05-19T10:38:25.853Z,14.97
2023-05-19T10:41:22.266Z,14.92
2023-05-19T10:44:34.997Z,14.87
2023-05-19T10:47:25.440Z,14.95
2023-05-19T10:50:13.729Z,14.96
2023-05-19T10:53:02.497Z,15.02
2023-05-19T10:55:54.862Z,15.02
2023-05-19T10:58:44.437Z,15.26
2023-05-19T11:01:35.662Z,15.53
2023-05-19T11:04:39.447Z,15.76
2023-05-19T11:07:26.387Z,16.02
2023-05-19T11:10:13.313Z,16.22
2023-05-19T11:13:00.468Z,16.41
2023-05-19T11:15:47.353Z,16.65
2023-05-19T11:18:34.937Z,16.95
2023-05-19T11:21:21.967Z,17.20
2023-05-19T11:24:09.465Z,17.33
2023-05-19T11:26:57.136Z,17.45
2023-05-19T11:29:44.166Z,17.68
2023-05-19T11:32:35.477Z,17.98
2023-05-19T11:35:23.172Z,18.20
2023-05-19T11:38:11.379Z,18.33
2023-05-19T11:40:58.246Z,18.48
2023-05-19T11:43:47.500Z,18.57
2023-05-19T11:46:34.459Z,18.83
2023-05-19T11:49:21.541Z,19.05
2023-05-19T11:52:08.438Z,19.27
2023-05-19T11:54:55.307Z,19.42
2023-05-19T11:57:47.037Z,19.54
2023-05-19T12:00:40.955Z,19.61
2023-05-19T12:03:28.340Z,19.63
2023-05-19T12:06:15.585Z,19.67
2023-05-19T12:09:04.882Z,19.72
2023-05-19T12:11:52.033Z,19.74
2023-05-19T12:14:38.960Z,19.75
2023-05-19T12:17:25.852Z,19.74
2023-05-19T12:20:12.914Z,19.75
2023-05-19T12:23:01.027Z,19.83
2023-05-19T12:25:48.271Z,19.82
2023-05-19T12:28:35.277Z,19.85
2023-05-19T12:31:22.194Z,19.86
2023-05-19T12:34:09.072Z,19.82
2023-05-19T12:36:56.131Z,19.81
2023-05-19T12:39:43.353Z,19.85
2023-05-19T12:42:30.813Z,19.92
2023-05-19T12:45:21.081Z,19.92
2023-05-19T12:48:11.965Z,20.00
2023-05-19T12:50:58.908Z,19.98
2023-05-19T12:53:46.462Z,19.88
2023-05-19T12:56:33.348Z,19.79
2023-05-19T12:59:37.494Z,19.76
2023-05-19T13:02:25.497Z,19.75
2023-05-19T13:05:12.479Z,19.66
2023-05-19T13:08:09.094Z,19.62
2023-05-19T13:10:56.018Z,19.60
2023-05-19T13:13:42.855Z,19.65
2023-05-19T13:16:29.739Z,19.74
2023-05-19T13:19:25.532Z,19.66
2023-05-19T13:22:12.948Z,19.59
2023-05-19T13:24:59.788Z,19.60
2023-05-19T13:27:47.812Z,19.61
2023-05-19T13:30:37.082Z,19.59
2023-05-19T13:33:24.114Z,19.55
2023-05-19T13:36:10.967Z,19.51
2023-05-19T13:38:57.882Z,19.51
2023-05-19T13:41:44.720Z,19.47
2023-05-19T13:44:31.621Z,19.38
2023-05-19T13:47:18.521Z,19.31
2023-05-19T13:50:06.221Z,19.27
2023-05-19T13:52:53.061Z,19.28
2023-05-19T13:55:39.899Z,19.31
2023-05-19T13:58:26.764Z,19.30
2023-05-19T14:01:13.615Z,19.24
2023-05-19T14:04:01.297Z,19.14
2023-05-19T14:06:48.319Z,19.05
2023-05-19T14:09:35.161Z,18.97
2023-05-19T14:12:27.845Z,18.95
2023-05-19T14:15:17.757Z,18.94
2023-05-19T14:18:05.500Z,18.91
2023-05-19T14:20:53.464Z,18.87
2023-05-19T14:23:40.350Z,18.79
2023-05-19T14:26:29.222Z,18.80
2023-05-19T14:29:16.486Z,18.82
2023-05-19T14:32:03.535Z,18.78
2023-05-19T14:34:50.633Z,18.70
2023-05-19T14:37:37.483Z,18.76
2023-05-19T14:40:24.381Z,18.73
2023-05-19T14:43:11.424Z,18.71
2023-05-19T14:45:58.296Z,18.82
2023-05-19T14:48:45.131Z,18.83
2023-05-19T14:51:32.314Z,18.85
2023-05-19T14:54:19.157Z,18.87
2023-05-19T14:57:06.138Z,18.93
2023-05-19T14:59:53.044Z,19.02
2023-05-19T15:02:39.928Z,19.18
2023-05-19T15:05:26.851Z,19.50
2023-05-19T15:08:13.723Z,20.27
2023-05-19T15:11:00.524Z,21.31
2023-05-19T15:13:47.473Z,22.29
2023-05-19T15:16:34.370Z,23.03
2023-05-19T15:19:21.286Z,23.86
2023-05-19T15:22:08.658Z,24.69
2023-05-19T15:24:55.522Z,25.41
2023-05-19T15:27:42.468Z,26.02
2023-05-19T15:30:29.510Z,26.58
2023-05-19T15:33:16.441Z,26.97
2023-05-19T15:36:03.492Z,27.24
2023-05-19T15:38:50.313Z,27.54
2023-05-19T15:41:37.154Z,27.91
2023-05-19T15:44:24.004Z,28.24
2023-05-19T15:47:10.955Z,28.26
2023-05-19T15:49:57.813Z,28.46
2023-05-19T15:52:44.695Z,28.82
2023-05-19T15:55:31.570Z,29.21
2023-05-19T15:58:18.383Z,29.83
2023-05-19T16:01:06.112Z,29.63
2023-05-19T16:03:53.227Z,28.86
2023-05-19T16:06:40.176Z,28.00
2023-05-19T16:09:26.990Z,27.22
2023-05-19T16:12:13.828Z,26.53
2023-05-19T16:15:00.674Z,25.98
2023-05-19T16:17:47.566Z,25.75
2023-05-19T16:20:34.876Z,26.25
2023-05-19T16:23:22.086Z,26.80
2023-05-19T16:26:08.943Z,27.36
2023-05-19T16:28:55.796Z,28.03
2023-05-19T16:31:42.701Z,28.38
2023-05-19T16:34:30.652Z,28.27
2023-05-19T16:37:17.665Z,28.17
2023-05-19T16:40:04.989Z,28.33
2023-05-19T16:42:54.629Z,28.71
2023-05-19T16:45:41.491Z,28.72
2023-05-19T16:48:28.502Z,28.95
2023-05-19T16:51:15.341Z,29.21
2023-05-19T16:54:02.156Z,29.16
2023-05-19T16:56:50.606Z,29.17
2023-05-19T16:59:37.471Z,29.31
2023-05-19T17:02:24.349Z,29.51
2023-05-19T17:05:11.302Z,29.44
2023-05-19T17:07:58.149Z,29.22
2023-05-19T17:10:45.005Z,28.67
2023-05-19T17:13:31.965Z,28.05
2023-05-19T17:16:18.838Z,27.37
2023-05-19T17:19:05.680Z,26.74
2023-05-19T17:21:52.626Z,26.10
2023-05-19T17:24:39.459Z,25.60
2023-05-19T17:27:26.290Z,25.16
2023-05-19T17:30:13.506Z,24.66
2023-05-19T17:33:00.490Z,23.99
2023-05-19T17:35:47.319Z,23.40
2023-05-19T17:38:34.785Z,22.87
2023-05-19T17:41:21.677Z,22.48
2023-05-19T17:44:08.619Z,22.06
2023-05-19T17:46:55.497Z,21.61
2023-05-19T17:49:42.425Z,21.26
2023-05-19T17:52:29.579Z,21.02
2023-05-19T17:55:16.762Z,20.80
2023-05-19T17:58:03.844Z,20.58
2023-05-19T18:00:50.947Z,20.37
2023-05-19T18:03:38.202Z,20.15
2023-05-19T18:06:25.599Z,19.95
2023-05-19T18:09:13.502Z,19.77
2023-05-19T18:12:00.311Z,19.56
2023-05-19T18:14:47.101Z,19.40
2023-05-19T18:17:33.948Z,19.20
2023-05-19T18:20:20.845Z,18.98
2023-05-19T18:23:07.697Z,18.80
2023-05-19T18:25:54.520Z,18.58
2023-05-19T18:28:41.949Z,18.40
2023-05-19T18:31:28.935Z,18.24
2023-05-19T18:34:15.832Z,18.06
2023-05-19T18:37:02.631Z,17.89
2023-05-19T18:39:49.462Z,17.74
2023-05-19T18:42:36.273Z,17.61
2023-05-19T18:45:23.086Z,17.48
2023-05-19T18:48:10.041Z,17.39
2023-05-19T18:50:56.927Z,17.25
2023-05-19T18:53:44.417Z,17.16
2023-05-19T18:56:32.905Z,17.06
2023-05-19T18:59:19.706Z,16.94
2023-05-19T19:02:06.930Z,16.84
2023-05-19T19:04:53.880Z,16.74
2023-05-19T19:07:41.578Z,16.63
2023-05-19T19:10:28.413Z,16.53
2023-05-19T19:13:15.253Z,16.38
2023-05-19T19:16:02.121Z,16.28
2023-05-19T19:18:49.118Z,16.18
2023-05-19T19:21:36.026Z,16.07
2023-05-19T19:24:22.890Z,15.97
2023-05-19T19:27:10.105Z,15.83
2023-05-19T19:29:58.158Z,15.71
2023-05-19T19:32:45.062Z,15.56
2023-05-19T19:35:32.051Z,15.45
2023-05-19T19:38:18.888Z,15.31
2023-05-19T19:41:05.765Z,15.13
2023-05-19T19:43:52.610Z,15.02
2023-05-19T19:46:39.648Z,14.88
2023-05-19T19:49:26.495Z,14.74
2023-05-19T19:52:13.339Z,14.61
2023-05-19T19:55:00.223Z,14.46
2023-05-19T19:57:47.104Z,14.32
2023-05-19T20:00:34.186Z,14.19
2023-05-19T20:03:21.442Z,14.07
2023-05-19T20:06:08.379Z,13.95
2023-05-19T20:08:55.256Z,13.83
2023-05-19T20:11:43.315Z,13.74
2023-05-19T20:14:30.184Z,13.66
2023-05-19T20:17:17.521Z,13.54
2023-05-19T20:20:04.840Z,13.44
2023-05-19T20:22:51.682Z,13.34
2023-05-19T20:25:41.126Z,13.24
2023-05-19T20:28:31.474Z,13.14
2023-05-19T20:31:18.336Z,13.06
2023-05-19T20:34:05.150Z,12.98
2023-05-19T20:36:52.030Z,12.89
2023-05-19T20:39:38.922Z,12.80
2023-05-19T20:42:25.858Z,12.72
2023-05-19T20:45:12.777Z,12.62
2023-05-19T20:47:59.820Z,12.54
2023-05-19T20:50:46.704Z,12.46
2023-05-19T20:53:33.534Z,12.38
2023-05-19T20:56:20.388Z,12.30
2023-05-19T20:59:07.253Z,12.20
2023-05-19T21:01:54.132Z,12.13
2023-05-19T21:04:41.069Z,12.05
2023-05-19T21:07:28.085Z,11.98
2023-05-19T21:10:14.993Z,11.91
2023-05-19T21:13:01.829Z,11.84
2023-05-19T21:15:48.660Z,11.76
2023-05-19T21:18:35.452Z,11.70
2023-05-19T21:21:22.325Z,11.64
2023-05-19T21:24:09.347Z,11.57
2023-05-19T21:26:56.194Z,11.49
2023-05-19T21:29:43.054Z,11.43
2023-05-19T21:32:29.953Z,11.36
2023-05-19T21:35:16.944Z,11.29
2023-05-19T21:38:12.132Z,11.24
2023-05-19T21:41:09.342Z,11.16
2023-05-19T21:43:56.136Z,11.11
2023-05-19T21:46:43.434Z,11.06
2023-05-19T21:49:30.445Z,11.00
2023-05-19T21:52:17.301Z,10.94
2023-05-19T21:55:04.473Z,10.91
2023-05-19T21:57:51.314Z,10.86
2023-05-19T22:00:38.168Z,10.80
2023-05-19T22:03:25.077Z,10.74
2023-05-19T22:06:12.105Z,10.70
2023-05-19T22:08:58.950Z,10.66
2023-05-19T22:11:45.818Z,10.63
2023-05-19T22:14:32.700Z,10.60
2023-05-19T22:17:19.551Z,10.54
2023-05-19T22:20:06.962Z,10.51
2023-05-19T22:22:53.788Z,10.47
2023-05-19T22:25:40.646Z,10.42
2023-05-19T22:28:27.714Z,10.39
2023-05-19T22:31:14.538Z,10.33
2023-05-19T22:34:01.407Z,10.28
2023-05-19T22:36:48.202Z,10.24
2023-05-19T22:39:35.228Z,10.19
2023-05-19T22:42:22.083Z,10.15
2023-05-19T22:45:09.518Z,10.11
2023-05-19T22:47:56.413Z,10.06
2023-05-19T22:50:43.344Z,10.02
2023-05-19T22:53:30.160Z,9.98
2023-05-19T22:56:17.178Z,9.93
2023-05-19T22:59:04.014Z,9.89
2023-05-19T23:01:50.879Z,9.85
2023-05-19T23:04:37.992Z,9.82
2023-05-19T23:07:25.022Z,9.79
2023-05-19T23:10:11.849Z,9.77
2023-05-19T23:12:58.690Z,9.72
2023-05-19T23:15:45.495Z,9.71
2023-05-19T23:18:32.305Z,9.66
2023-05-19T23:21:19.263Z,9.62
2023-05-19T23:24:06.474Z,9.59
2023-05-19T23:26:56.368Z,9.56
2023-05-19T23:29:47.128Z,9.50
2023-05-19T23:32:34.068Z,9.51
2023-05-19T23:35:20.972Z,9.47
2023-05-19T23:38:07.788Z,9.45
2023-05-19T23:40:54.596Z,9.43
2023-05-19T23:43:41.445Z,9.40
2023-05-19T23:46:28.315Z,9.37
2023-05-19T23:49:15.173Z,9.26
2023-05-19T23:52:01.986Z,9.30
2023-05-19T23:54:48.928Z,9.26
2023-05-19T23:57:35.773Z,9.24
